createdAt,value
2019-03-27T00:00:44.990Z,0.00
2019-03-27T00:01:44.974Z,0.00
2019-03-27T00:02:44.962Z,0.00
2019-03-27T00:03:44.969Z,0.00
2019-03-27T00:04:44.951Z,0.00
2019-03-27T00:05:44.947Z,0.00
2019-03-27T00:06:44.926Z,0.00
2019-03-27T00:07:44.907Z,0.00
2019-03-27T00:08:44.903Z,0.00
2019-03-27T00:09:44.893Z,0.00
2019-03-27T00:10:44.881Z,0.00
2019-03-27T00:11:44.869Z,0.00
2019-03-27T00:12:44.865Z,0.00
2019-03-27T00:13:44.853Z,0.00
2019-03-27T00:14:44.849Z,0.00
2019-03-27T00:15:44.839Z,0.00
2019-03-27T00:16:44.816Z,0.00
2019-03-27T00:17:44.830Z,0.00
2019-03-27T00:18:44.791Z,0.00
2019-03-27T00:19:44.785Z,0.00
2019-03-27T00:20:44.772Z,0.00
2019-03-27T00:21:44.821Z,0.00
2019-03-27T00:22:44.747Z,0.00
2019-03-27T00:23:44.736Z,0.00
2019-03-27T00:24:44.728Z,0.00
2019-03-27T00:25:44.720Z,0.00
2019-03-27T00:26:44.708Z,0.00
2019-03-27T00:27:44.698Z,0.00
2019-03-27T00:28:44.802Z,0.00
2019-03-27T00:29:44.676Z,0.00
2019-03-27T00:30:44.671Z,0.00
2019-03-27T00:31:44.667Z,0.00
2019-03-27T00:32:44.675Z,0.00
2019-03-27T00:33:44.633Z,0.00
2019-03-27T00:34:44.631Z,0.00
2019-03-27T00:35:44.610Z,0.00
2019-03-27T00:36:44.599Z,0.00
2019-03-27T00:37:44.586Z,0.00
2019-03-27T00:38:44.587Z,0.00
2019-03-27T00:39:44.587Z,0.00
2019-03-27T00:40:44.560Z,0.00
2019-03-27T00:41:44.569Z,0.00
2019-03-27T00:42:44.539Z,0.00
2019-03-27T00:43:44.535Z,0.00
2019-03-27T00:44:44.536Z,0.00
2019-03-27T00:45:44.509Z,0.00
2019-03-27T00:46:44.494Z,0.00
2019-03-27T00:47:44.482Z,0.00
2019-03-27T00:48:44.485Z,0.00
2019-03-27T00:49:44.467Z,0.00
2019-03-27T00:50:44.466Z,0.00
2019-03-27T00:51:44.440Z,0.00
2019-03-27T00:52:44.429Z,0.00
2019-03-27T00:53:44.418Z,0.00
2019-03-27T00:54:44.418Z,0.00
2019-03-27T00:55:44.396Z,0.00
2019-03-27T00:56:44.396Z,0.00
2019-03-27T00:57:44.411Z,0.00
2019-03-27T00:58:44.363Z,0.00
2019-03-27T00:59:44.375Z,0.00
2019-03-27T01:00:44.338Z,0.00
2019-03-27T01:01:44.335Z,0.00
2019-03-27T01:02:44.321Z,0.00
2019-03-27T01:03:44.310Z,0.00
2019-03-27T01:04:44.303Z,0.00
2019-03-27T01:05:44.301Z,0.00
2019-03-27T01:06:44.283Z,0.00
2019-03-27T01:07:44.265Z,0.00
2019-03-27T01:08:44.256Z,0.00
2019-03-27T01:09:44.247Z,0.00
2019-03-27T01:10:44.235Z,0.00
2019-03-27T01:11:44.223Z,0.00
2019-03-27T01:12:44.224Z,0.00
2019-03-27T01:13:44.212Z,0.00
2019-03-27T01:14:44.189Z,0.00
2019-03-27T01:15:44.195Z,0.00
2019-03-27T01:16:44.173Z,0.00
2019-03-27T01:17:44.160Z,0.00
2019-03-27T01:18:44.151Z,0.00
2019-03-27T01:19:44.145Z,0.00
2019-03-27T01:20:44.129Z,0.00
2019-03-27T01:21:44.119Z,0.00
2019-03-27T01:22:44.107Z,0.00
2019-03-27T01:23:44.102Z,0.00
2019-03-27T01:24:44.099Z,0.00
2019-03-27T01:25:44.080Z,0.00
2019-03-27T01:26:44.102Z,0.00
2019-03-27T01:27:44.053Z,0.00
2019-03-27T01:28:44.048Z,0.00
2019-03-27T01:29:44.037Z,0.00
2019-03-27T01:30:44.031Z,0.00
2019-03-27T01:31:44.030Z,0.00
2019-03-27T01:32:44.002Z,0.00
2019-03-27T01:33:44.008Z,0.00
2019-03-27T01:34:43.980Z,0.00
2019-03-27T01:35:43.978Z,0.00
2019-03-27T01:36:43.952Z,0.00
2019-03-27T01:37:43.948Z,0.00
2019-03-27T01:38:43.944Z,0.00
2019-03-27T01:39:43.942Z,0.00
2019-03-27T01:40:43.925Z,0.00
2019-03-27T01:41:43.918Z,0.00
2019-03-27T01:42:43.889Z,0.00
2019-03-27T01:43:43.890Z,0.00
2019-03-27T01:44:43.879Z,0.00
2019-03-27T01:45:52.891Z,0.00
2019-03-27T01:46:44.848Z,0.00
2019-03-27T01:47:43.843Z,0.00
2019-03-27T01:48:43.947Z,0.00
2019-03-27T01:49:43.814Z,0.00
2019-03-27T01:50:43.808Z,0.00
2019-03-27T01:51:43.795Z,0.00
2019-03-27T01:52:43.789Z,0.00
2019-03-27T01:53:43.772Z,0.00
2019-03-27T01:54:43.759Z,0.00
2019-03-27T01:55:43.758Z,0.00
2019-03-27T01:56:43.742Z,0.00
2019-03-27T01:57:43.734Z,0.00
2019-03-27T01:58:43.724Z,0.00
2019-03-27T01:59:43.724Z,0.00
2019-03-27T02:00:43.717Z,0.00
2019-03-27T02:01:43.690Z,0.00
2019-03-27T02:02:43.675Z,0.00
2019-03-27T02:03:43.666Z,0.00
2019-03-27T02:04:43.657Z,0.00
2019-03-27T02:05:43.656Z,0.00
2019-03-27T02:06:43.635Z,0.00
2019-03-27T02:07:43.637Z,0.00
2019-03-27T02:08:43.615Z,0.00
2019-03-27T02:09:43.602Z,0.00
2019-03-27T02:10:43.659Z,0.00
2019-03-27T02:11:43.583Z,0.00
2019-03-27T02:12:43.569Z,0.00
2019-03-27T02:13:43.569Z,0.00
2019-03-27T02:14:43.551Z,0.00
2019-03-27T02:15:43.545Z,0.00
2019-03-27T02:16:43.524Z,0.00
2019-03-27T02:17:43.537Z,0.00
2019-03-27T02:18:43.537Z,0.00
2019-03-27T02:19:43.497Z,0.00
2019-03-27T02:20:43.512Z,0.00
2019-03-27T02:21:43.479Z,0.00
2019-03-27T02:22:43.461Z,0.00
2019-03-27T02:23:43.454Z,0.00
2019-03-27T02:24:43.473Z,0.00
2019-03-27T02:25:43.462Z,0.00
2019-03-27T02:26:43.442Z,0.00
2019-03-27T02:27:43.425Z,0.00
2019-03-27T02:28:43.402Z,0.00
2019-03-27T02:29:43.388Z,0.00
2019-03-27T02:30:43.387Z,0.00
2019-03-27T02:31:43.377Z,0.00
2019-03-27T02:32:43.366Z,0.00
2019-03-27T02:33:43.354Z,0.00
2019-03-27T02:34:43.344Z,0.00
2019-03-27T02:35:43.351Z,0.00
2019-03-27T02:36:43.312Z,0.00
2019-03-27T02:37:43.307Z,0.00
2019-03-27T02:38:43.287Z,0.00
2019-03-27T02:39:43.294Z,0.00
2019-03-27T02:40:43.272Z,0.00
2019-03-27T02:41:43.258Z,0.00
2019-03-27T02:42:43.257Z,0.00
2019-03-27T02:43:43.257Z,0.00
2019-03-27T02:44:43.245Z,0.00
2019-03-27T02:45:43.279Z,0.00
2019-03-27T02:46:43.204Z,0.00
2019-03-27T02:47:43.192Z,0.00
2019-03-27T02:48:43.184Z,0.00
2019-03-27T02:49:43.189Z,0.00
2019-03-27T02:50:43.177Z,0.00
2019-03-27T02:51:43.152Z,0.00
2019-03-27T02:52:43.140Z,0.00
2019-03-27T02:53:43.310Z,0.00
2019-03-27T02:54:43.124Z,0.00
2019-03-27T02:55:43.117Z,0.00
2019-03-27T02:56:43.104Z,0.00
2019-03-27T02:57:43.088Z,0.00
2019-03-27T02:58:43.123Z,0.00
2019-03-27T02:59:43.084Z,0.00
2019-03-27T03:00:43.126Z,0.00
2019-03-27T03:01:43.048Z,0.00
2019-03-27T03:02:43.042Z,0.00
2019-03-27T03:03:43.070Z,0.00
2019-03-27T03:04:43.018Z,0.00
2019-03-27T03:05:43.018Z,0.00
2019-03-27T03:06:42.995Z,0.00
2019-03-27T03:07:42.984Z,0.00
2019-03-27T03:08:42.983Z,0.00
2019-03-27T03:09:42.958Z,0.00
2019-03-27T03:10:45.451Z,0.00
2019-03-27T03:11:42.940Z,0.00
2019-03-27T03:12:42.936Z,0.00
2019-03-27T03:13:42.919Z,0.00
2019-03-27T03:14:42.914Z,0.00
2019-03-27T03:15:42.902Z,0.00
2019-03-27T03:16:43.506Z,0.00
2019-03-27T03:17:42.880Z,0.00
2019-03-27T03:18:42.869Z,0.00
2019-03-27T03:19:42.849Z,0.00
2019-03-27T03:20:42.866Z,0.00
2019-03-27T03:21:42.838Z,0.00
2019-03-27T03:22:42.852Z,0.00
2019-03-27T03:23:42.826Z,0.00
2019-03-27T03:24:42.808Z,0.00
2019-03-27T03:25:42.801Z,0.00
2019-03-27T03:26:42.781Z,0.00
2019-03-27T03:27:42.767Z,0.00
2019-03-27T03:28:42.768Z,0.00
2019-03-27T03:29:42.789Z,0.00
2019-03-27T03:30:42.762Z,0.00
2019-03-27T03:31:42.944Z,0.00
2019-03-27T03:32:42.722Z,0.00
2019-03-27T03:33:42.731Z,0.00
2019-03-27T03:34:42.694Z,0.00
2019-03-27T03:35:42.700Z,0.00
2019-03-27T03:36:42.667Z,0.00
2019-03-27T03:37:42.715Z,0.00
2019-03-27T03:38:42.646Z,0.00
2019-03-27T03:39:42.641Z,0.00
2019-03-27T03:40:42.667Z,0.00
2019-03-27T03:41:42.638Z,0.00
2019-03-27T03:42:42.611Z,0.00
2019-03-27T03:43:42.599Z,0.00
2019-03-27T03:44:42.580Z,0.00
2019-03-27T03:45:42.573Z,0.00
2019-03-27T03:46:58.390Z,0.00
2019-03-27T03:47:43.556Z,0.00
2019-03-27T03:48:42.543Z,0.00
2019-03-27T03:49:42.557Z,0.00
2019-03-27T03:50:42.519Z,0.00
2019-03-27T03:51:42.529Z,0.00
2019-03-27T03:52:45.824Z,0.00
2019-03-27T03:53:42.488Z,0.00
2019-03-27T03:54:42.491Z,0.00
2019-03-27T03:55:42.500Z,0.00
2019-03-27T03:56:42.475Z,0.00
2019-03-27T03:57:42.445Z,0.00
2019-03-27T03:58:43.133Z,0.00
2019-03-27T03:59:42.434Z,0.00
2019-03-27T04:00:42.414Z,0.00
2019-03-27T04:01:42.432Z,0.00
2019-03-27T04:02:42.389Z,0.00
2019-03-27T04:03:42.380Z,0.00
2019-03-27T04:04:42.365Z,0.00
2019-03-27T04:05:42.419Z,0.00
2019-03-27T04:06:42.362Z,0.00
2019-03-27T04:07:42.349Z,0.00
2019-03-27T04:08:42.342Z,0.00
2019-03-27T04:09:42.332Z,0.00
2019-03-27T04:10:42.305Z,0.00
2019-03-27T04:11:42.316Z,0.00
2019-03-27T04:12:42.291Z,0.00
2019-03-27T04:13:42.274Z,0.00
2019-03-27T04:14:42.271Z,0.00
2019-03-27T04:15:42.257Z,0.00
2019-03-27T04:16:42.255Z,0.00
2019-03-27T04:17:42.232Z,0.00
2019-03-27T04:18:42.222Z,0.00
2019-03-27T04:19:42.216Z,0.00
2019-03-27T04:20:42.222Z,0.00
2019-03-27T04:21:42.203Z,0.00
2019-03-27T04:22:42.183Z,0.00
2019-03-27T04:23:42.172Z,0.00
2019-03-27T04:24:42.162Z,0.00
2019-03-27T04:26:06.892Z,0.00
2019-03-27T04:26:43.153Z,0.00
2019-03-27T04:27:42.188Z,0.00
2019-03-27T04:28:42.118Z,0.00
2019-03-27T04:29:42.101Z,0.00
2019-03-27T04:30:42.177Z,0.00
2019-03-27T04:31:42.119Z,0.00
2019-03-27T04:32:42.074Z,0.00
2019-03-27T04:33:42.062Z,0.00
2019-03-27T04:34:42.083Z,0.00
2019-03-27T04:35:42.069Z,0.00
2019-03-27T04:36:42.074Z,0.00
2019-03-27T04:37:42.040Z,0.00
2019-03-27T04:38:42.017Z,0.00
2019-03-27T04:39:41.991Z,0.00
2019-03-27T04:40:41.988Z,0.00
2019-03-27T04:41:42.098Z,4.00
2019-03-27T04:42:41.982Z,4.00
2019-03-27T04:43:41.962Z,0.00
2019-03-27T04:44:41.944Z,4.00
2019-03-27T04:45:41.944Z,4.00
2019-03-27T04:46:42.038Z,4.00
2019-03-27T04:47:41.918Z,4.00
2019-03-27T04:48:41.905Z,4.00
2019-03-27T04:49:41.905Z,8.00
2019-03-27T04:50:41.874Z,12.00
2019-03-27T04:51:41.874Z,12.00
2019-03-27T04:52:41.880Z,16.00
2019-03-27T04:53:41.845Z,16.00
2019-03-27T04:54:41.830Z,20.00
2019-03-27T04:55:42.625Z,20.00
2019-03-27T04:56:41.833Z,24.00
2019-03-27T04:57:41.805Z,24.00
2019-03-27T04:58:41.791Z,28.00
2019-03-27T04:59:41.782Z,36.00
2019-03-27T05:00:41.777Z,40.00
2019-03-27T05:01:41.773Z,44.00
2019-03-27T05:02:41.750Z,48.00
2019-03-27T05:03:41.744Z,56.00
2019-03-27T05:04:41.722Z,60.00
2019-03-27T05:05:41.712Z,60.00
2019-03-27T05:06:41.718Z,64.00
2019-03-27T05:07:41.699Z,60.00
2019-03-27T05:08:41.690Z,68.00
2019-03-27T05:09:41.678Z,72.00
2019-03-27T05:10:41.715Z,76.00
2019-03-27T05:11:41.663Z,80.00
2019-03-27T05:12:41.645Z,88.00
2019-03-27T05:13:41.639Z,96.00
2019-03-27T05:14:41.628Z,104.00
2019-03-27T05:15:41.666Z,112.00
2019-03-27T05:16:41.611Z,120.00
2019-03-27T05:17:46.266Z,128.00
2019-03-27T05:18:42.671Z,136.00
2019-03-27T05:19:41.569Z,144.00
2019-03-27T05:20:41.549Z,160.00
2019-03-27T05:21:41.541Z,168.00
2019-03-27T05:22:41.553Z,180.00
2019-03-27T05:23:41.526Z,196.00
2019-03-27T05:24:41.585Z,212.00
2019-03-27T05:25:41.522Z,224.00
2019-03-27T05:26:41.490Z,236.00
2019-03-27T05:27:41.500Z,240.00
2019-03-27T05:28:41.482Z,240.00
2019-03-27T05:29:41.461Z,240.00
2019-03-27T05:30:41.465Z,240.00
2019-03-27T05:31:41.463Z,244.00
2019-03-27T05:32:41.420Z,256.00
2019-03-27T05:33:41.419Z,260.00
2019-03-27T05:34:41.407Z,268.00
2019-03-27T05:35:41.398Z,276.00
2019-03-27T05:36:41.397Z,288.00
2019-03-27T05:37:41.393Z,296.00
2019-03-27T05:38:41.458Z,308.00
2019-03-27T05:39:41.351Z,316.00
2019-03-27T05:40:41.340Z,324.00
2019-03-27T05:41:41.337Z,324.00
2019-03-27T05:42:41.317Z,332.00
2019-03-27T05:43:41.312Z,340.00
2019-03-27T05:44:41.299Z,348.00
2019-03-27T05:45:41.294Z,352.00
2019-03-27T05:46:41.299Z,360.00
2019-03-27T05:47:41.264Z,368.00
2019-03-27T05:48:41.253Z,384.00
2019-03-27T05:49:41.244Z,400.00
2019-03-27T05:50:41.235Z,420.00
2019-03-27T05:51:41.247Z,436.00
2019-03-27T05:52:41.239Z,456.00
2019-03-27T05:53:41.280Z,480.00
2019-03-27T05:54:41.196Z,500.00
2019-03-27T05:55:41.210Z,516.00
2019-03-27T05:56:41.183Z,524.00
2019-03-27T05:57:41.170Z,540.00
2019-03-27T05:58:41.144Z,568.00
2019-03-27T05:59:41.157Z,596.00
2019-03-27T06:00:41.139Z,624.00
2019-03-27T06:01:41.127Z,648.00
2019-03-27T06:02:41.117Z,676.00
2019-03-27T06:03:41.105Z,696.00
2019-03-27T06:04:41.081Z,716.00
2019-03-27T06:05:41.068Z,728.00
2019-03-27T06:06:41.094Z,744.00
2019-03-27T06:07:41.045Z,764.00
2019-03-27T06:08:41.038Z,788.00
2019-03-27T06:09:41.091Z,816.00
2019-03-27T06:10:41.024Z,844.00
2019-03-27T06:11:41.002Z,864.00
2019-03-27T06:12:41.006Z,880.00
2019-03-27T06:13:40.981Z,872.00
2019-03-27T06:14:41.050Z,856.00
2019-03-27T06:15:40.963Z,832.00
2019-03-27T06:16:40.954Z,756.00
2019-03-27T06:17:40.951Z,688.00
2019-03-27T06:18:40.940Z,648.00
2019-03-27T06:19:40.919Z,628.00
2019-03-27T06:20:40.916Z,668.00
2019-03-27T06:21:40.931Z,660.00
2019-03-27T06:22:40.988Z,652.00
2019-03-27T06:23:40.878Z,680.00
2019-03-27T06:24:40.866Z,740.00
2019-03-27T06:25:40.872Z,764.00
2019-03-27T06:26:40.849Z,752.00
2019-03-27T06:27:40.839Z,808.00
2019-03-27T06:28:40.841Z,860.00
2019-03-27T06:29:40.847Z,872.00
2019-03-27T06:30:40.799Z,860.00
2019-03-27T06:31:40.791Z,852.00
2019-03-27T06:32:40.813Z,828.00
2019-03-27T06:33:40.779Z,812.00
2019-03-27T06:34:40.769Z,816.00
2019-03-27T06:35:40.752Z,828.00
2019-03-27T06:36:40.746Z,852.00
2019-03-27T06:37:40.740Z,860.00
2019-03-27T06:38:40.731Z,864.00
2019-03-27T06:39:40.715Z,880.00
2019-03-27T06:40:40.748Z,904.00
2019-03-27T06:41:40.684Z,928.00
2019-03-27T06:42:40.685Z,948.00
2019-03-27T06:43:40.696Z,972.00
2019-03-27T06:44:40.656Z,988.00
2019-03-27T06:45:40.659Z,1004.00
2019-03-27T06:46:40.650Z,1020.00
2019-03-27T06:47:40.642Z,1036.00
2019-03-27T06:48:40.606Z,1064.00
2019-03-27T06:49:40.606Z,1092.00
2019-03-27T06:50:40.593Z,1116.00
2019-03-27T06:51:40.726Z,1128.00
2019-03-27T06:52:40.575Z,1152.00
2019-03-27T06:53:40.552Z,1172.00
2019-03-27T06:54:40.545Z,1180.00
2019-03-27T06:55:40.542Z,1200.00
2019-03-27T06:56:40.525Z,1208.00
2019-03-27T06:57:40.519Z,1220.00
2019-03-27T06:58:53.556Z,1232.00
2019-03-27T06:59:41.499Z,1232.00
2019-03-27T07:00:40.478Z,1236.00
2019-03-27T07:01:40.480Z,1224.00
2019-03-27T07:02:40.460Z,1220.00
2019-03-27T07:03:40.476Z,1220.00
2019-03-27T07:04:40.453Z,1228.00
2019-03-27T07:05:40.425Z,1260.00
2019-03-27T07:06:40.424Z,1296.00
2019-03-27T07:07:40.423Z,1312.00
2019-03-27T07:08:40.466Z,1336.00
2019-03-27T07:09:42.547Z,1376.00
2019-03-27T07:10:40.383Z,1404.00
2019-03-27T07:11:40.368Z,1444.00
2019-03-27T07:12:40.373Z,1480.00
2019-03-27T07:13:40.341Z,1524.00
2019-03-27T07:14:40.350Z,1548.00
2019-03-27T07:15:40.319Z,1572.00
2019-03-27T07:16:40.315Z,1568.00
2019-03-27T07:17:40.309Z,1576.00
2019-03-27T07:18:40.751Z,1576.00
2019-03-27T07:19:40.282Z,1540.00
2019-03-27T07:20:41.110Z,1504.00
2019-03-27T07:21:40.273Z,1476.00
2019-03-27T07:22:40.269Z,1432.00
2019-03-27T07:23:40.264Z,1392.00
2019-03-27T07:24:40.227Z,1384.00
2019-03-27T07:25:40.224Z,1376.00
2019-03-27T07:26:40.209Z,1364.00
2019-03-27T07:27:40.266Z,1376.00
2019-03-27T07:28:40.196Z,1412.00
2019-03-27T07:29:40.175Z,1456.00
2019-03-27T07:30:40.163Z,1488.00
2019-03-27T07:31:40.163Z,1520.00
2019-03-27T07:32:40.156Z,1536.00
2019-03-27T07:33:40.129Z,1540.00
2019-03-27T07:34:40.151Z,1520.00
2019-03-27T07:35:40.114Z,1528.00
2019-03-27T07:36:40.104Z,1524.00
2019-03-27T07:37:40.097Z,1552.00
2019-03-27T07:38:40.077Z,1576.00
2019-03-27T07:39:40.087Z,1584.00
2019-03-27T07:40:40.065Z,1588.00
2019-03-27T07:41:40.062Z,1592.00
2019-03-27T07:42:40.058Z,1564.00
2019-03-27T07:43:40.028Z,1532.00
2019-03-27T07:44:40.015Z,1532.00
2019-03-27T07:45:40.007Z,1556.00
2019-03-27T07:46:39.997Z,1584.00
2019-03-27T07:47:39.996Z,1620.00
2019-03-27T07:48:52.958Z,1648.00
2019-03-27T07:49:40.982Z,1696.00
2019-03-27T07:50:39.957Z,1768.00
2019-03-27T07:51:39.959Z,1780.00
2019-03-27T07:52:39.950Z,1812.00
2019-03-27T07:53:39.920Z,1844.00
2019-03-27T07:54:39.909Z,1876.00
2019-03-27T07:55:39.910Z,1932.00
2019-03-27T07:56:39.939Z,1928.00
2019-03-27T07:57:39.914Z,1988.00
2019-03-27T07:58:39.939Z,1812.00
2019-03-27T07:59:39.893Z,1788.00
2019-03-27T08:00:39.845Z,1932.00
2019-03-27T08:01:39.844Z,2028.00
2019-03-27T08:02:39.832Z,2088.00
2019-03-27T08:03:39.828Z,2032.00
2019-03-27T08:04:39.816Z,1988.00
2019-03-27T08:05:39.800Z,1916.00
2019-03-27T08:06:39.791Z,2048.00
2019-03-27T08:07:39.785Z,2264.00
2019-03-27T08:08:39.764Z,2452.00
2019-03-27T08:09:39.759Z,2608.00
2019-03-27T08:10:39.740Z,2700.00
2019-03-27T08:11:39.897Z,2728.00
2019-03-27T08:12:39.729Z,2596.00
2019-03-27T08:13:39.714Z,2532.00
2019-03-27T08:14:39.703Z,2344.00
2019-03-27T08:15:40.933Z,2324.00
2019-03-27T08:16:39.689Z,2320.00
2019-03-27T08:17:39.679Z,2144.00
2019-03-27T08:18:39.698Z,1976.00
2019-03-27T08:19:39.656Z,2308.00
2019-03-27T08:20:39.680Z,2212.00
2019-03-27T08:21:39.621Z,2108.00
2019-03-27T08:22:39.625Z,2012.00
2019-03-27T08:23:39.610Z,2560.00
2019-03-27T08:24:39.602Z,2788.00
2019-03-27T08:25:39.621Z,2564.00
2019-03-27T08:26:39.578Z,2416.00
2019-03-27T08:27:39.606Z,2268.00
2019-03-27T08:28:39.552Z,2480.00
2019-03-27T08:29:39.539Z,2676.00
2019-03-27T08:30:39.530Z,2792.00
2019-03-27T08:31:39.549Z,2808.00
2019-03-27T08:32:39.539Z,2664.00
2019-03-27T08:33:39.553Z,2424.00
2019-03-27T08:34:39.481Z,2224.00
2019-03-27T08:35:39.502Z,2208.00
2019-03-27T08:36:39.463Z,2356.00
2019-03-27T08:37:39.454Z,2424.00
2019-03-27T08:38:39.456Z,2748.00
2019-03-27T08:39:39.439Z,3136.00
2019-03-27T08:40:39.429Z,3008.00
2019-03-27T08:41:39.410Z,2964.00
2019-03-27T08:42:39.420Z,3176.00
2019-03-27T08:43:39.461Z,3120.00
2019-03-27T08:44:39.375Z,2840.00
2019-03-27T08:45:39.376Z,2868.00
2019-03-27T08:46:39.356Z,3140.00
2019-03-27T08:47:39.351Z,3744.00
2019-03-27T08:48:39.504Z,4388.00
2019-03-27T08:49:39.322Z,4264.00
2019-03-27T08:50:39.315Z,4024.00
2019-03-27T08:51:39.305Z,3656.00
2019-03-27T08:52:39.291Z,3460.00
2019-03-27T08:53:39.301Z,3284.00
2019-03-27T08:54:39.331Z,3244.00
2019-03-27T08:55:39.266Z,3372.00
2019-03-27T08:56:39.253Z,3500.00
2019-03-27T08:57:39.240Z,3540.00
2019-03-27T08:58:39.232Z,3416.00
2019-03-27T08:59:39.219Z,3704.00
2019-03-27T09:00:39.206Z,4008.00
2019-03-27T09:01:39.234Z,4104.00
2019-03-27T09:02:39.185Z,4180.00
2019-03-27T09:03:39.178Z,3668.00
2019-03-27T09:04:39.168Z,4064.00
2019-03-27T09:05:39.154Z,4836.00
2019-03-27T09:06:39.164Z,4688.00
2019-03-27T09:07:39.137Z,5492.00
2019-03-27T09:08:39.128Z,6280.00
2019-03-27T09:09:39.110Z,7660.00
2019-03-27T09:10:39.151Z,7140.00
2019-03-27T09:11:39.094Z,6820.00
2019-03-27T09:12:39.076Z,8216.00
2019-03-27T09:13:39.080Z,9428.00
2019-03-27T09:14:39.062Z,10392.00
2019-03-27T09:15:39.053Z,9524.00
2019-03-27T09:16:39.049Z,8508.00
2019-03-27T09:17:39.036Z,8260.00
2019-03-27T09:18:39.026Z,7920.00
2019-03-27T09:19:39.000Z,9756.00
2019-03-27T09:20:38.991Z,8524.00
2019-03-27T09:21:38.984Z,7988.00
2019-03-27T09:22:38.981Z,7564.00
2019-03-27T09:23:39.006Z,7252.00
2019-03-27T09:24:38.954Z,7764.00
2019-03-27T09:25:38.981Z,11172.00
2019-03-27T09:26:38.944Z,15292.00
2019-03-27T09:27:38.920Z,14144.00
2019-03-27T09:28:38.928Z,15440.00
2019-03-27T09:29:38.948Z,17344.00
2019-03-27T09:30:38.912Z,12552.00
2019-03-27T09:31:44.664Z,10468.00
2019-03-27T09:32:39.898Z,11736.00
2019-03-27T09:33:38.881Z,10268.00
2019-03-27T09:34:38.856Z,9812.00
2019-03-27T09:35:38.846Z,7676.00
2019-03-27T09:36:38.824Z,6216.00
2019-03-27T09:37:38.816Z,5956.00
2019-03-27T09:38:38.841Z,5752.00
2019-03-27T09:39:38.800Z,5984.00
2019-03-27T09:40:38.807Z,5844.00
2019-03-27T09:41:38.762Z,5616.00
2019-03-27T09:42:38.753Z,5868.00
2019-03-27T09:43:38.829Z,6088.00
2019-03-27T09:44:38.748Z,6568.00
2019-03-27T09:45:38.720Z,7860.00
2019-03-27T09:46:38.708Z,9128.00
2019-03-27T09:47:38.703Z,10316.00
2019-03-27T09:48:38.688Z,11944.00
2019-03-27T09:49:49.040Z,10380.00
2019-03-27T09:50:39.676Z,11568.00
2019-03-27T09:51:38.668Z,10308.00
2019-03-27T09:52:38.732Z,10252.00
2019-03-27T09:53:38.636Z,12992.00
2019-03-27T09:54:38.631Z,12996.00
2019-03-27T09:55:38.614Z,7220.00
2019-03-27T09:56:38.607Z,5848.00
2019-03-27T09:57:38.592Z,4492.00
2019-03-27T09:58:38.584Z,3348.00
2019-03-27T09:59:38.574Z,2488.00
2019-03-27T10:00:38.561Z,1940.00
2019-03-27T10:01:38.547Z,1728.00
2019-03-27T10:02:38.554Z,1648.00
2019-03-27T10:03:38.528Z,1640.00
2019-03-27T10:04:38.525Z,1648.00
2019-03-27T10:05:38.558Z,1592.00
2019-03-27T10:06:38.494Z,1568.00
2019-03-27T10:07:38.499Z,1636.00
2019-03-27T10:08:38.491Z,1836.00
2019-03-27T10:09:38.470Z,1912.00
2019-03-27T10:10:38.663Z,1992.00
2019-03-27T10:11:38.465Z,2284.00
2019-03-27T10:12:38.429Z,2624.00
2019-03-27T10:13:38.424Z,3004.00
2019-03-27T10:14:38.585Z,3664.00
2019-03-27T10:15:38.403Z,4372.00
2019-03-27T10:16:38.386Z,5672.00
2019-03-27T10:17:38.385Z,6560.00
2019-03-27T10:18:38.369Z,7244.00
2019-03-27T10:19:38.365Z,8748.00
2019-03-27T10:20:38.357Z,16384.00
2019-03-27T10:21:38.362Z,44192.00
2019-03-27T10:22:38.333Z,23104.00
2019-03-27T10:23:38.314Z,19712.00
2019-03-27T10:24:38.316Z,13384.00
2019-03-27T10:25:38.290Z,6744.00
2019-03-27T10:26:38.285Z,6020.00
2019-03-27T10:27:38.274Z,5548.00
2019-03-27T10:28:38.263Z,5016.00
2019-03-27T10:29:38.279Z,4192.00
2019-03-27T10:30:38.246Z,3600.00
2019-03-27T10:31:38.230Z,3236.00
2019-03-27T10:32:38.223Z,3096.00
2019-03-27T10:33:38.206Z,3080.00
2019-03-27T10:34:38.212Z,3192.00
2019-03-27T10:35:38.212Z,3220.00
2019-03-27T10:36:38.190Z,3316.00
2019-03-27T10:37:38.197Z,3628.00
2019-03-27T10:38:41.437Z,3904.00
2019-03-27T10:39:38.205Z,4060.00
2019-03-27T10:40:38.172Z,3848.00
2019-03-27T10:41:38.121Z,3716.00
2019-03-27T10:42:38.109Z,3916.00
2019-03-27T10:43:38.124Z,4036.00
2019-03-27T10:44:38.115Z,4092.00
2019-03-27T10:45:38.083Z,3912.00
2019-03-27T10:46:38.082Z,3836.00
2019-03-27T10:47:38.059Z,3764.00
2019-03-27T10:48:51.448Z,3904.00
2019-03-27T10:49:39.055Z,4320.00
2019-03-27T10:50:38.036Z,4564.00
2019-03-27T10:51:38.014Z,5496.00
2019-03-27T10:52:38.008Z,6232.00
2019-03-27T10:53:38.028Z,7708.00
2019-03-27T10:54:38.007Z,20384.00
2019-03-27T10:55:37.979Z,20064.00
2019-03-27T10:56:37.960Z,12152.00
2019-03-27T10:57:37.957Z,21760.00
2019-03-27T10:58:37.978Z,14796.00
2019-03-27T10:59:37.933Z,12028.00
2019-03-27T11:00:37.949Z,13136.00
2019-03-27T11:01:37.914Z,23968.00
2019-03-27T11:02:37.979Z,15776.00
2019-03-27T11:03:37.894Z,18368.00
2019-03-27T11:04:37.874Z,15224.00
2019-03-27T11:05:37.892Z,14732.00
2019-03-27T11:06:37.851Z,13668.00
2019-03-27T11:07:37.852Z,21056.00
2019-03-27T11:08:37.836Z,32992.00
2019-03-27T11:09:37.827Z,24000.00
2019-03-27T11:10:37.833Z,14408.00
2019-03-27T11:11:37.795Z,15272.00
2019-03-27T11:12:37.885Z,14536.00
2019-03-27T11:13:37.775Z,11428.00
2019-03-27T11:14:38.514Z,10340.00
2019-03-27T11:15:37.799Z,9192.00
2019-03-27T11:16:37.773Z,9320.00
2019-03-27T11:17:37.745Z,9600.00
2019-03-27T11:18:37.736Z,10248.00
2019-03-27T11:19:37.716Z,11936.00
2019-03-27T11:20:37.722Z,11012.00
2019-03-27T11:21:37.757Z,12712.00
2019-03-27T11:22:37.684Z,13768.00
2019-03-27T11:23:37.673Z,15964.00
2019-03-27T11:24:37.666Z,16008.00
2019-03-27T11:25:37.662Z,15720.00
2019-03-27T11:26:37.729Z,11268.00
2019-03-27T11:27:37.634Z,8808.00
2019-03-27T11:28:37.633Z,8008.00
2019-03-27T11:29:37.620Z,7680.00
2019-03-27T11:30:37.626Z,8204.00
2019-03-27T11:31:37.614Z,9672.00
2019-03-27T11:32:37.587Z,10920.00
2019-03-27T11:33:37.635Z,10032.00
2019-03-27T11:34:37.553Z,10036.00
2019-03-27T11:35:37.548Z,11940.00
2019-03-27T11:36:37.571Z,9552.00
2019-03-27T11:37:37.530Z,8496.00
2019-03-27T11:38:37.888Z,8492.00
2019-03-27T11:39:37.503Z,10820.00
2019-03-27T11:40:37.532Z,8660.00
2019-03-27T11:41:37.533Z,6716.00
2019-03-27T11:42:37.475Z,6284.00
2019-03-27T11:43:37.458Z,6212.00
2019-03-27T11:44:37.457Z,6040.00
2019-03-27T11:45:37.440Z,5800.00
2019-03-27T11:46:37.437Z,6248.00
2019-03-27T11:47:37.415Z,9296.00
2019-03-27T11:48:37.421Z,12660.00
2019-03-27T11:49:37.396Z,11528.00
2019-03-27T11:50:44.660Z,11320.00
2019-03-27T11:51:38.376Z,14716.00
2019-03-27T11:52:37.360Z,14700.00
2019-03-27T11:53:37.352Z,13476.00
2019-03-27T11:54:37.340Z,15740.00
2019-03-27T11:55:37.864Z,15464.00
2019-03-27T11:56:37.323Z,11328.00
2019-03-27T11:57:37.309Z,10496.00
2019-03-27T11:58:37.298Z,12516.00
2019-03-27T11:59:37.287Z,9444.00
2019-03-27T12:00:37.329Z,7360.00
2019-03-27T12:01:42.133Z,6148.00
2019-03-27T12:02:38.300Z,5472.00
2019-03-27T12:03:37.245Z,7024.00
2019-03-27T12:04:37.240Z,7528.00
2019-03-27T12:05:37.242Z,7296.00
2019-03-27T12:06:37.211Z,4540.00
2019-03-27T12:07:37.201Z,4228.00
2019-03-27T12:08:37.190Z,4144.00
2019-03-27T12:09:37.222Z,3572.00
2019-03-27T12:10:37.187Z,3164.00
2019-03-27T12:11:37.164Z,3096.00
2019-03-27T12:12:37.152Z,3400.00
2019-03-27T12:13:37.144Z,3644.00
2019-03-27T12:14:37.125Z,4896.00
2019-03-27T12:15:37.148Z,6104.00
2019-03-27T12:16:37.161Z,8136.00
2019-03-27T12:17:37.101Z,11556.00
2019-03-27T12:18:37.083Z,22528.00
2019-03-27T12:19:37.967Z,21824.00
2019-03-27T12:20:37.072Z,42880.00
2019-03-27T12:21:37.057Z,50272.00
2019-03-27T12:22:37.040Z,42944.00
2019-03-27T12:23:37.084Z,38304.00
2019-03-27T12:24:37.023Z,32608.00
2019-03-27T12:25:37.017Z,30144.00
2019-03-27T12:26:37.000Z,28832.00
2019-03-27T12:27:36.988Z,29120.00
2019-03-27T12:28:36.986Z,29120.00
2019-03-27T12:29:36.977Z,29568.00
2019-03-27T12:30:36.983Z,37344.00
2019-03-27T12:31:36.944Z,39296.00
2019-03-27T12:32:36.936Z,31808.00
2019-03-27T12:33:36.951Z,37696.00